sensor_id;sensor_type;location;lat;lon;timestamp;P1;P2;P0
77538;PMS7003;66665;51.656;16.106;2023-01-16T00:01:47;0;0;0
77538;PMS7003;66665;51.656;16.106;2023-01-16T00:05:00;0;0;0
77538;PMS7003;66665;51.656;16.106;2023-01-16T00:08:02;1;0;0
77538;PMS7003;66665;51.656;16.106;2023-01-16T00:11:05;0;0;0
77538;PMS7003;66665;51.656;16.106;2023-01-16T00:14:06;0;0;0
77538;PMS7003;66665;51.656;16.106;2023-01-16T00:17:08;0;0;0
77538;PMS7003;66665;51.656;16.106;2023-01-16T00:20:10;0;0;0
77538;PMS7003;66665;51.656;16.106;2023-01-16T00:23:12;0;0;0
77538;PMS7003;66665;51.656;16.106;2023-01-16T00:26:17;0;0;0
77538;PMS7003;66665;51.656;16.106;2023-01-16T00:29:19;0;0;0
77538;PMS7003;66665;51.656;16.106;2023-01-16T00:32:21;0;0;0
77538;PMS7003;66665;51.656;16.106;2023-01-16T00:35:23;0;0;0
77538;PMS7003;66665;51.656;16.106;2023-01-16T00:38:27;0;0;0
77538;PMS7003;66665;51.656;16.106;2023-01-16T00:41:38;0;0;0
77538;PMS7003;66665;51.656;16.106;2023-01-16T00:44:40;0;0;0
77538;PMS7003;66665;51.656;16.106;2023-01-16T00:47:42;0;0;0
77538;PMS7003;66665;51.656;16.106;2023-01-16T00:50:44;1;0;0
77538;PMS7003;66665;51.656;16.106;2023-01-16T00:53:45;0;0;0
77538;PMS7003;66665;51.656;16.106;2023-01-16T00:56:47;0;0;0
77538;PMS7003;66665;51.656;16.106;2023-01-16T00:59:49;0;0;0
77538;PMS7003;66665;51.656;16.106;2023-01-16T01:02:54;0;0;0
77538;PMS7003;66665;51.656;16.106;2023-01-16T01:05:56;0;0;0
77538;PMS7003;66665;51.656;16.106;2023-01-16T01:08:58;0;0;0
77538;PMS7003;66665;51.656;16.106;2023-01-16T01:12:00;0;0;0
77538;PMS7003;66665;51.656;16.106;2023-01-16T01:15:02;0;0;0
77538;PMS7003;66665;51.656;16.106;2023-01-16T01:18:15;0;0;0
77538;PMS7003;66665;51.656;16.106;2023-01-16T01:21:16;0;0;0
77538;PMS7003;66665;51.656;16.106;2023-01-16T01:24:18;0;0;0
77538;PMS7003;66665;51.656;16.106;2023-01-16T01:27:20;0;0;0
77538;PMS7003;66665;51.656;16.106;2023-01-16T01:30:22;0;0;0
77538;PMS7003;66665;51.656;16.106;2023-01-16T01:33:24;0;0;0
77538;PMS7003;66665;51.656;16.106;2023-01-16T01:36:26;1;0;0
77538;PMS7003;66665;51.656;16.106;2023-01-16T01:39:31;0;0;0
77538;PMS7003;66665;51.656;16.106;2023-01-16T01:42:37;0;0;0
77538;PMS7003;66665;51.656;16.106;2023-01-16T01:45:53;0;0;0
77538;PMS7003;66665;51.656;16.106;2023-01-16T01:49:01;0;0;0
77538;PMS7003;66665;51.656;16.106;2023-01-16T01:52:11;1;0;0
77538;PMS7003;66665;51.656;16.106;2023-01-16T01:55:13;0;0;0
77538;PMS7003;66665;51.656;16.106;2023-01-16T01:58:24;0;0;0
77538;PMS7003;66665;51.656;16.106;2023-01-16T02:01:28;0;0;0
77538;PMS7003;66665;51.656;16.106;2023-01-16T02:04:32;0;0;0
77538;PMS7003;66665;51.656;16.106;2023-01-16T02:07:51;0;0;0
77538;PMS7003;66665;51.656;16.106;2023-01-16T02:10:56;0;0;0
77538;PMS7003;66665;51.656;16.106;2023-01-16T02:14:08;0;0;0
77538;PMS7003;66665;51.656;16.106;2023-01-16T02:17:18;0;0;0
77538;PMS7003;66665;51.656;16.106;2023-01-16T02:20:35;0;0;0
77538;PMS7003;66665;51.656;16.106;2023-01-16T02:43:32;0;0;0
77538;PMS7003;66665;51.656;16.106;2023-01-16T02:46:46;0;0;0
77538;PMS7003;66665;51.656;16.106;2023-01-16T02:53:15;0;0;0
77538;PMS7003;66665;51.656;16.106;2023-01-16T02:56:27;0;0;0
77538;PMS7003;66665;51.656;16.106;2023-01-16T02:59:36;0;0;0
77538;PMS7003;66665;51.656;16.106;2023-01-16T03:02:41;0;0;0
77538;PMS7003;66665;51.656;16.106;2023-01-16T03:05:45;0;0;0
77538;PMS7003;66665;51.656;16.106;2023-01-16T03:15:27;0;0;0
77538;PMS7003;66665;51.656;16.106;2023-01-16T03:18:41;0;0;0
77538;PMS7003;66665;51.656;16.106;2023-01-16T03:28:31;0;0;0
77538;PMS7003;66665;51.656;16.106;2023-01-16T03:34:57;0;0;0
77538;PMS7003;66665;51.656;16.106;2023-01-16T03:38:05;0;0;0
77538;PMS7003;66665;51.656;16.106;2023-01-16T03:41:11;0;0;0
77538;PMS7003;66665;51.656;16.106;2023-01-16T03:44:20;0;0;0
77538;PMS7003;66665;51.656;16.106;2023-01-16T03:47:31;0;0;0
77538;PMS7003;66665;51.656;16.106;2023-01-16T03:50:42;0;0;0
77538;PMS7003;66665;51.656;16.106;2023-01-16T03:57:07;0;0;0
77538;PMS7003;66665;51.656;16.106;2023-01-16T04:00:16;0;0;0
77538;PMS7003;66665;51.656;16.106;2023-01-16T04:03:33;0;0;0
77538;PMS7003;66665;51.656;16.106;2023-01-16T04:06:32;0;0;0
77538;PMS7003;66665;51.656;16.106;2023-01-16T04:12:51;0;0;0
77538;PMS7003;66665;51.656;16.106;2023-01-16T04:16:00;0;0;0
77538;PMS7003;66665;51.656;16.106;2023-01-16T04:19:07;0;0;0
77538;PMS7003;66665;51.656;16.106;2023-01-16T04:25:23;1;0;0
77538;PMS7003;66665;51.656;16.106;2023-01-16T04:28:25;0;0;0
77538;PMS7003;66665;51.656;16.106;2023-01-16T04:31:27;0;0;0
77538;PMS7003;66665;51.656;16.106;2023-01-16T04:34:29;0;0;0
77538;PMS7003;66665;51.656;16.106;2023-01-16T04:37:34;0;0;0
77538;PMS7003;66665;51.656;16.106;2023-01-16T04:40:37;0;0;0
77538;PMS7003;66665;51.656;16.106;2023-01-16T04:43:39;0;0;0
77538;PMS7003;66665;51.656;16.106;2023-01-16T04:46:40;0;0;0
77538;PMS7003;66665;51.656;16.106;2023-01-16T04:49:42;0;0;0
77538;PMS7003;66665;51.656;16.106;2023-01-16T04:52:44;0;0;0
77538;PMS7003;66665;51.656;16.106;2023-01-16T04:55:46;0;0;0
77538;PMS7003;66665;51.656;16.106;2023-01-16T04:58:51;0;0;0
77538;PMS7003;66665;51.656;16.106;2023-01-16T05:01:54;0;0;0
77538;PMS7003;66665;51.656;16.106;2023-01-16T05:04:56;0;0;0
77538;PMS7003;66665;51.656;16.106;2023-01-16T05:07:58;0;0;0
77538;PMS7003;66665;51.656;16.106;2023-01-16T05:11:11;1;1;0
77538;PMS7003;66665;51.656;16.106;2023-01-16T05:14:16;0;0;0
77538;PMS7003;66665;51.656;16.106;2023-01-16T05:17:17;0;0;0
77538;PMS7003;66665;51.656;16.106;2023-01-16T05:20:25;0;0;0
77538;PMS7003;66665;51.656;16.106;2023-01-16T05:23:27;1;0;0
77538;PMS7003;66665;51.656;16.106;2023-01-16T05:26:29;0;0;0
77538;PMS7003;66665;51.656;16.106;2023-01-16T05:29:36;0;0;0
77538;PMS7003;66665;51.656;16.106;2023-01-16T05:32:38;0;0;0
77538;PMS7003;66665;51.656;16.106;2023-01-16T05:35:40;0;0;0
77538;PMS7003;66665;51.656;16.106;2023-01-16T05:38:42;0;0;0
77538;PMS7003;66665;51.656;16.106;2023-01-16T05:41:44;0;0;0
77538;PMS7003;66665;51.656;16.106;2023-01-16T05:44:45;1;0;0
77538;PMS7003;66665;51.656;16.106;2023-01-16T05:47:49;0;0;0
77538;PMS7003;66665;51.656;16.106;2023-01-16T05:50:53;1;0;0
77538;PMS7003;66665;51.656;16.106;2023-01-16T05:53:55;0;0;0
77538;PMS7003;66665;51.656;16.106;2023-01-16T05:56:57;0;0;0
77538;PMS7003;66665;51.656;16.106;2023-01-16T05:59:59;0;0;0
77538;PMS7003;66665;51.656;16.106;2023-01-16T06:03:01;1;1;0
77538;PMS7003;66665;51.656;16.106;2023-01-16T06:06:03;0;0;0
77538;PMS7003;66665;51.656;16.106;2023-01-16T06:09:06;0;0;0
77538;PMS7003;66665;51.656;16.106;2023-01-16T06:12:12;0;0;0
77538;PMS7003;66665;51.656;16.106;2023-01-16T06:15:16;0;0;0
77538;PMS7003;66665;51.656;16.106;2023-01-16T06:18:18;0;0;0
77538;PMS7003;66665;51.656;16.106;2023-01-16T06:21:20;1;0;0
77538;PMS7003;66665;51.656;16.106;2023-01-16T06:24:22;0;0;0
77538;PMS7003;66665;51.656;16.106;2023-01-16T06:27:31;2;0;0
77538;PMS7003;66665;51.656;16.106;2023-01-16T06:30:33;0;0;0
77538;PMS7003;66665;51.656;16.106;2023-01-16T06:33:35;0;0;0
77538;PMS7003;66665;51.656;16.106;2023-01-16T06:36:37;0;0;0
77538;PMS7003;66665;51.656;16.106;2023-01-16T06:39:39;0;0;0
77538;PMS7003;66665;51.656;16.106;2023-01-16T06:42:41;0;0;0
77538;PMS7003;66665;51.656;16.106;2023-01-16T06:45:43;0;0;0
77538;PMS7003;66665;51.656;16.106;2023-01-16T06:48:48;0;0;0
77538;PMS7003;66665;51.656;16.106;2023-01-16T06:51:50;1;0;0
77538;PMS7003;66665;51.656;16.106;2023-01-16T06:54:51;0;0;0
77538;PMS7003;66665;51.656;16.106;2023-01-16T06:57:53;0;0;0
77538;PMS7003;66665;51.656;16.106;2023-01-16T07:00:55;0;0;0
77538;PMS7003;66665;51.656;16.106;2023-01-16T07:03:57;0;0;0
77538;PMS7003;66665;51.656;16.106;2023-01-16T07:06:59;0;0;0
77538;PMS7003;66665;51.656;16.106;2023-01-16T07:10:04;0;0;0
77538;PMS7003;66665;51.656;16.106;2023-01-16T07:13:06;0;0;0
77538;PMS7003;66665;51.656;16.106;2023-01-16T07:16:10;0;0;0
77538;PMS7003;66665;51.656;16.106;2023-01-16T07:19:30;0;0;0
77538;PMS7003;66665;51.656;16.106;2023-01-16T07:22:44;0;0;0
77538;PMS7003;66665;51.656;16.106;2023-01-16T07:25:47;0;0;0
77538;PMS7003;66665;51.656;16.106;2023-01-16T07:28:57;1;0;0
77538;PMS7003;66665;51.656;16.106;2023-01-16T07:33:33;1;0;0
77538;PMS7003;66665;51.656;16.106;2023-01-16T07:36:35;0;0;0
77538;PMS7003;66665;51.656;16.106;2023-01-16T07:39:37;1;1;0
77538;PMS7003;66665;51.656;16.106;2023-01-16T07:42:39;2;0;0
77538;PMS7003;66665;51.656;16.106;2023-01-16T07:45:41;1;1;1
77538;PMS7003;66665;51.656;16.106;2023-01-16T07:48:46;0;0;0
77538;PMS7003;66665;51.656;16.106;2023-01-16T07:51:51;0;0;0
77538;PMS7003;66665;51.656;16.106;2023-01-16T07:54:53;0;0;0
77538;PMS7003;66665;51.656;16.106;2023-01-16T07:57:55;0;0;0
77538;PMS7003;66665;51.656;16.106;2023-01-16T08:00:57;2;0;0
77538;PMS7003;66665;51.656;16.106;2023-01-16T08:03:59;0;0;0
77538;PMS7003;66665;51.656;16.106;2023-01-16T08:07:11;0;0;0
77538;PMS7003;66665;51.656;16.106;2023-01-16T08:10:13;0;0;0
77538;PMS7003;66665;51.656;16.106;2023-01-16T08:13:15;0;0;0
77538;PMS7003;66665;51.656;16.106;2023-01-16T08:16:17;1;0;0
77538;PMS7003;66665;51.656;16.106;2023-01-16T08:19:19;0;0;0
77538;PMS7003;66665;51.656;16.106;2023-01-16T08:22:21;2;1;1
77538;PMS7003;66665;51.656;16.106;2023-01-16T08:25:23;2;1;1
77538;PMS7003;66665;51.656;16.106;2023-01-16T08:28:28;0;0;0
77538;PMS7003;66665;51.656;16.106;2023-01-16T08:31:30;0;0;0
77538;PMS7003;66665;51.656;16.106;2023-01-16T08:34:33;0;0;0
77538;PMS7003;66665;51.656;16.106;2023-01-16T08:37:34;0;0;0
77538;PMS7003;66665;51.656;16.106;2023-01-16T08:40:37;1;0;0
77538;PMS7003;66665;51.656;16.106;2023-01-16T08:43:49;0;0;0
77538;PMS7003;66665;51.656;16.106;2023-01-16T08:47:10;0;0;0
77538;PMS7003;66665;51.656;16.106;2023-01-16T08:50:30;0;0;0
77538;PMS7003;66665;51.656;16.106;2023-01-16T08:53:44;0;0;0
77538;PMS7003;66665;51.656;16.106;2023-01-16T08:56:46;0;0;0
77538;PMS7003;66665;51.656;16.106;2023-01-16T08:59:48;0;0;0
77538;PMS7003;66665;51.656;16.106;2023-01-16T09:02:49;0;0;0
77538;PMS7003;66665;51.656;16.106;2023-01-16T09:05:52;0;0;0
77538;PMS7003;66665;51.656;16.106;2023-01-16T09:08:57;0;0;0
77538;PMS7003;66665;51.656;16.106;2023-01-16T09:11:59;0;0;0
77538;PMS7003;66665;51.656;16.106;2023-01-16T09:15:13;0;0;0
77538;PMS7003;66665;51.656;16.106;2023-01-16T09:18:24;0;0;0
77538;PMS7003;66665;51.656;16.106;2023-01-16T09:21:26;0;0;0
77538;PMS7003;66665;51.656;16.106;2023-01-16T09:24:28;0;0;0
77538;PMS7003;66665;51.656;16.106;2023-01-16T09:27:30;0;0;0
77538;PMS7003;66665;51.656;16.106;2023-01-16T09:30:31;0;0;0
77538;PMS7003;66665;51.656;16.106;2023-01-16T09:33:33;0;0;0
77538;PMS7003;66665;51.656;16.106;2023-01-16T09:36:35;0;0;0
77538;PMS7003;66665;51.656;16.106;2023-01-16T09:39:40;0;0;0
77538;PMS7003;66665;51.656;16.106;2023-01-16T09:52:31;1;0;0
77538;PMS7003;66665;51.656;16.106;2023-01-16T09:55:50;0;0;0
77538;PMS7003;66665;51.656;16.106;2023-01-16T10:02:27;1;0;0
77538;PMS7003;66665;51.656;16.106;2023-01-16T10:08:53;0;0;0
77538;PMS7003;66665;51.656;16.106;2023-01-16T10:12:08;0;0;0
77538;PMS7003;66665;51.656;16.106;2023-01-16T10:15:21;0;0;0
77538;PMS7003;66665;51.656;16.106;2023-01-16T10:37:54;0;0;0
77538;PMS7003;66665;51.656;16.106;2023-01-16T10:41:05;0;0;0
77538;PMS7003;66665;51.656;16.106;2023-01-16T10:47:49;0;0;0
77538;PMS7003;66665;51.656;16.106;2023-01-16T10:51:14;0;0;0
77538;PMS7003;66665;51.656;16.106;2023-01-16T10:54:17;0;0;0
77538;PMS7003;66665;51.656;16.106;2023-01-16T10:57:19;0;0;0
77538;PMS7003;66665;51.656;16.106;2023-01-16T11:00:23;0;0;0
77538;PMS7003;66665;51.656;16.106;2023-01-16T11:03:39;1;0;0
77538;PMS7003;66665;51.656;16.106;2023-01-16T11:06:42;0;0;0
77538;PMS7003;66665;51.656;16.106;2023-01-16T11:09:46;2;0;0
77538;PMS7003;66665;51.656;16.106;2023-01-16T11:12:49;0;0;0
77538;PMS7003;66665;51.656;16.106;2023-01-16T11:16:05;0;0;0
77538;PMS7003;66665;51.656;16.106;2023-01-16T11:22:47;0;0;0
77538;PMS7003;66665;51.656;16.106;2023-01-16T11:25:58;0;0;0
77538;PMS7003;66665;51.656;16.106;2023-01-16T11:29:03;0;0;0
77538;PMS7003;66665;51.656;16.106;2023-01-16T11:32:06;0;0;0
77538;PMS7003;66665;51.656;16.106;2023-01-16T11:35:11;0;0;0
77538;PMS7003;66665;51.656;16.106;2023-01-16T11:38:16;0;0;0
77538;PMS7003;66665;51.656;16.106;2023-01-16T11:41:20;0;0;0
77538;PMS7003;66665;51.656;16.106;2023-01-16T11:44:29;0;0;0
77538;PMS7003;66665;51.656;16.106;2023-01-16T11:47:56;1;1;0
77538;PMS7003;66665;51.656;16.106;2023-01-16T11:51:13;0;0;0
77538;PMS7003;66665;51.656;16.106;2023-01-16T11:54:19;0;0;0
77538;PMS7003;66665;51.656;16.106;2023-01-16T11:57:33;0;0;0
77538;PMS7003;66665;51.656;16.106;2023-01-16T12:04:06;0;0;0
77538;PMS7003;66665;51.656;16.106;2023-01-16T12:07:13;0;0;0
77538;PMS7003;66665;51.656;16.106;2023-01-16T12:20:33;0;0;0
77538;PMS7003;66665;51.656;16.106;2023-01-16T12:27:04;0;0;0
77538;PMS7003;66665;51.656;16.106;2023-01-16T12:30:08;0;0;0
77538;PMS7003;66665;51.656;16.106;2023-01-16T12:36:45;0;0;0
77538;PMS7003;66665;51.656;16.106;2023-01-16T12:40:04;0;0;0
77538;PMS7003;66665;51.656;16.106;2023-01-16T12:46:35;2;0;0
77538;PMS7003;66665;51.656;16.106;2023-01-16T12:53:08;0;0;0
77538;PMS7003;66665;51.656;16.106;2023-01-16T12:59:40;0;0;0
77538;PMS7003;66665;51.656;16.106;2023-01-16T13:06:08;0;0;0
77538;PMS7003;66665;51.656;16.106;2023-01-16T13:09:15;0;0;0
77538;PMS7003;66665;51.656;16.106;2023-01-16T13:12:28;0;0;0
77538;PMS7003;66665;51.656;16.106;2023-01-16T13:15:50;1;0;0
77538;PMS7003;66665;51.656;16.106;2023-01-16T13:19:09;0;0;0
77538;PMS7003;66665;51.656;16.106;2023-01-16T13:22:28;0;0;0
77538;PMS7003;66665;51.656;16.106;2023-01-16T13:25:36;0;0;0
77538;PMS7003;66665;51.656;16.106;2023-01-16T13:31:55;0;0;0
77538;PMS7003;66665;51.656;16.106;2023-01-16T13:35:12;0;0;0
77538;PMS7003;66665;51.656;16.106;2023-01-16T13:44:48;0;0;0
77538;PMS7003;66665;51.656;16.106;2023-01-16T13:48:06;0;0;0
77538;PMS7003;66665;51.656;16.106;2023-01-16T13:51:13;1;0;0
77538;PMS7003;66665;51.656;16.106;2023-01-16T13:54:23;1;0;0
77538;PMS7003;66665;51.656;16.106;2023-01-16T13:57:31;0;0;0
77538;PMS7003;66665;51.656;16.106;2023-01-16T14:00:38;0;0;0
77538;PMS7003;66665;51.656;16.106;2023-01-16T14:03:41;0;0;0
77538;PMS7003;66665;51.656;16.106;2023-01-16T14:06:53;0;0;0
77538;PMS7003;66665;51.656;16.106;2023-01-16T14:13:23;0;0;0
77538;PMS7003;66665;51.656;16.106;2023-01-16T14:16:29;0;0;0
77538;PMS7003;66665;51.656;16.106;2023-01-16T14:19:50;0;0;0
77538;PMS7003;66665;51.656;16.106;2023-01-16T14:23:12;0;0;0
77538;PMS7003;66665;51.656;16.106;2023-01-16T14:29:54;0;0;0
77538;PMS7003;66665;51.656;16.106;2023-01-16T14:33:02;0;0;0
77538;PMS7003;66665;51.656;16.106;2023-01-16T14:36:09;0;0;0
77538;PMS7003;66665;51.656;16.106;2023-01-16T14:42:29;0;0;0
77538;PMS7003;66665;51.656;16.106;2023-01-16T14:52:45;0;0;0
77538;PMS7003;66665;51.656;16.106;2023-01-16T14:59:43;0;0;0
77538;PMS7003;66665;51.656;16.106;2023-01-16T15:02:41;0;0;0
77538;PMS7003;66665;51.656;16.106;2023-01-16T15:05:51;4;1;0
77538;PMS7003;66665;51.656;16.106;2023-01-16T15:08:57;0;0;0
77538;PMS7003;66665;51.656;16.106;2023-01-16T15:12:02;0;0;0
77538;PMS7003;66665;51.656;16.106;2023-01-16T15:18:23;0;0;0
77538;PMS7003;66665;51.656;16.106;2023-01-16T15:21:37;1;1;0
77538;PMS7003;66665;51.656;16.106;2023-01-16T15:25:00;1;1;1
77538;PMS7003;66665;51.656;16.106;2023-01-16T15:34:41;1;1;0
77538;PMS7003;66665;51.656;16.106;2023-01-16T15:37:49;4;0;0
77538;PMS7003;66665;51.656;16.106;2023-01-16T15:40:56;0;0;0
77538;PMS7003;66665;51.656;16.106;2023-01-16T15:43:59;2;0;0
77538;PMS7003;66665;51.656;16.106;2023-01-16T15:53:44;1;0;0
77538;PMS7003;66665;51.656;16.106;2023-01-16T15:56:55;0;0;0
77538;PMS7003;66665;51.656;16.106;2023-01-16T15:59:58;0;0;0
77538;PMS7003;66665;51.656;16.106;2023-01-16T16:03:02;1;1;0
77538;PMS7003;66665;51.656;16.106;2023-01-16T16:06:15;0;0;0
77538;PMS7003;66665;51.656;16.106;2023-01-16T16:09:21;2;0;0
77538;PMS7003;66665;51.656;16.106;2023-01-16T16:12:27;0;0;0
77538;PMS7003;66665;51.656;16.106;2023-01-16T16:15:30;5;1;0
77538;PMS7003;66665;51.656;16.106;2023-01-16T16:22:03;2;1;1
77538;PMS7003;66665;51.656;16.106;2023-01-16T16:28:36;1;0;0
77538;PMS7003;66665;51.656;16.106;2023-01-16T16:31:41;0;0;0
77538;PMS7003;66665;51.656;16.106;2023-01-16T16:34:52;0;0;0
77538;PMS7003;66665;51.656;16.106;2023-01-16T16:37:56;0;0;0
77538;PMS7003;66665;51.656;16.106;2023-01-16T16:44:20;0;0;0
77538;PMS7003;66665;51.656;16.106;2023-01-16T16:47:26;1;1;0
77538;PMS7003;66665;51.656;16.106;2023-01-16T16:50:33;3;0;0
77538;PMS7003;66665;51.656;16.106;2023-01-16T16:53:44;1;1;1
77538;PMS7003;66665;51.656;16.106;2023-01-16T16:56:51;2;1;1
77538;PMS7003;66665;51.656;16.106;2023-01-16T16:59:57;4;1;0
77538;PMS7003;66665;51.656;16.106;2023-01-16T17:06:21;3;1;1
77538;PMS7003;66665;51.656;16.106;2023-01-16T17:09:26;1;1;1
77538;PMS7003;66665;51.656;16.106;2023-01-16T17:12:34;2;2;1
77538;PMS7003;66665;51.656;16.106;2023-01-16T17:15:40;1;1;1
77538;PMS7003;66665;51.656;16.106;2023-01-16T17:18:42;1;1;0
77538;PMS7003;66665;51.656;16.106;2023-01-16T17:21:45;1;0;0
77538;PMS7003;66665;51.656;16.106;2023-01-16T17:24:47;1;1;0
77538;PMS7003;66665;51.656;16.106;2023-01-16T17:27:55;0;0;0
77538;PMS7003;66665;51.656;16.106;2023-01-16T17:30:57;1;0;0
77538;PMS7003;66665;51.656;16.106;2023-01-16T17:33:59;0;0;0
77538;PMS7003;66665;51.656;16.106;2023-01-16T17:37:01;2;2;1
77538;PMS7003;66665;51.656;16.106;2023-01-16T17:40:09;0;0;0
77538;PMS7003;66665;51.656;16.106;2023-01-16T17:43:18;0;0;0
77538;PMS7003;66665;51.656;16.106;2023-01-16T17:46:33;1;1;1
77538;PMS7003;66665;51.656;16.106;2023-01-16T17:49:35;1;1;0
77538;PMS7003;66665;51.656;16.106;2023-01-16T17:52:49;0;0;0
77538;PMS7003;66665;51.656;16.106;2023-01-16T17:55:54;0;0;0
77538;PMS7003;66665;51.656;16.106;2023-01-16T17:58:58;4;1;1
77538;PMS7003;66665;51.656;16.106;2023-01-16T18:02:09;0;0;0
77538;PMS7003;66665;51.656;16.106;2023-01-16T18:05:11;2;2;1
77538;PMS7003;66665;51.656;16.106;2023-01-16T18:08:12;3;2;1
77538;PMS7003;66665;51.656;16.106;2023-01-16T18:11:15;2;2;1
77538;PMS7003;66665;51.656;16.106;2023-01-16T18:14:29;3;2;2
77538;PMS7003;66665;51.656;16.106;2023-01-16T18:17:43;0;0;0
77538;PMS7003;66665;51.656;16.106;2023-01-16T18:20:45;3;2;1
77538;PMS7003;66665;51.656;16.106;2023-01-16T18:23:52;1;0;0
77538;PMS7003;66665;51.656;16.106;2023-01-16T18:27:02;5;2;1
77538;PMS7003;66665;51.656;16.106;2023-01-16T18:30:06;2;2;2
77538;PMS7003;66665;51.656;16.106;2023-01-16T18:33:08;2;1;1
77538;PMS7003;66665;51.656;16.106;2023-01-16T18:36:10;1;1;0
77538;PMS7003;66665;51.656;16.106;2023-01-16T18:39:12;1;1;0
77538;PMS7003;66665;51.656;16.106;2023-01-16T18:42:26;0;0;0
77538;PMS7003;66665;51.656;16.106;2023-01-16T18:45:40;4;2;2
77538;PMS7003;66665;51.656;16.106;2023-01-16T18:48:55;1;1;1
77538;PMS7003;66665;51.656;16.106;2023-01-16T18:52:15;4;4;3
77538;PMS7003;66665;51.656;16.106;2023-01-16T18:55:32;6;4;3
77538;PMS7003;66665;51.656;16.106;2023-01-16T18:58:46;5;3;2
77538;PMS7003;66665;51.656;16.106;2023-01-16T19:02:01;1;0;0
77538;PMS7003;66665;51.656;16.106;2023-01-16T19:05:15;1;1;0
77538;PMS7003;66665;51.656;16.106;2023-01-16T19:08:17;2;1;1
77538;PMS7003;66665;51.656;16.106;2023-01-16T19:11:24;7;4;3
77538;PMS7003;66665;51.656;16.106;2023-01-16T19:14:32;2;2;1
77538;PMS7003;66665;51.656;16.106;2023-01-16T19:17:37;1;1;1
77538;PMS7003;66665;51.656;16.106;2023-01-16T19:20:39;2;2;2
77538;PMS7003;66665;51.656;16.106;2023-01-16T19:23:41;3;2;0
77538;PMS7003;66665;51.656;16.106;2023-01-16T19:26:43;9;3;2
77538;PMS7003;66665;51.656;16.106;2023-01-16T19:29:52;3;3;2
77538;PMS7003;66665;51.656;16.106;2023-01-16T19:32:54;6;4;2
77538;PMS7003;66665;51.656;16.106;2023-01-16T19:35:55;2;2;1
77538;PMS7003;66665;51.656;16.106;2023-01-16T19:38:57;2;2;0
77538;PMS7003;66665;51.656;16.106;2023-01-16T19:42:00;2;0;0
77538;PMS7003;66665;51.656;16.106;2023-01-16T19:45:14;1;1;1
77538;PMS7003;66665;51.656;16.106;2023-01-16T19:48:28;1;1;1
77538;PMS7003;66665;51.656;16.106;2023-01-16T19:51:30;1;1;0
77538;PMS7003;66665;51.656;16.106;2023-01-16T19:54:39;0;0;0
77538;PMS7003;66665;51.656;16.106;2023-01-16T19:57:43;2;1;1
77538;PMS7003;66665;51.656;16.106;2023-01-16T20:00:46;1;1;1
77538;PMS7003;66665;51.656;16.106;2023-01-16T20:03:49;2;1;0
77538;PMS7003;66665;51.656;16.106;2023-01-16T20:06:52;2;2;1
77538;PMS7003;66665;51.656;16.106;2023-01-16T20:10:00;3;2;1
77538;PMS7003;66665;51.656;16.106;2023-01-16T20:13:02;1;1;0
77538;PMS7003;66665;51.656;16.106;2023-01-16T20:16:05;5;4;3
77538;PMS7003;66665;51.656;16.106;2023-01-16T20:19:08;1;1;0
77538;PMS7003;66665;51.656;16.106;2023-01-16T20:22:11;5;3;2
77538;PMS7003;66665;51.656;16.106;2023-01-16T20:25:21;6;4;2
77538;PMS7003;66665;51.656;16.106;2023-01-16T20:28:23;3;2;2
77538;PMS7003;66665;51.656;16.106;2023-01-16T20:31:25;3;2;1
77538;PMS7003;66665;51.656;16.106;2023-01-16T20:34:29;3;3;0
77538;PMS7003;66665;51.656;16.106;2023-01-16T20:37:31;6;5;2
77538;PMS7003;66665;51.656;16.106;2023-01-16T20:40:42;5;4;2
77538;PMS7003;66665;51.656;16.106;2023-01-16T20:43:44;2;2;1
77538;PMS7003;66665;51.656;16.106;2023-01-16T20:46:58;0;0;0
77538;PMS7003;66665;51.656;16.106;2023-01-16T20:50:09;3;2;2
77538;PMS7003;66665;51.656;16.106;2023-01-16T20:53:11;2;1;0
77538;PMS7003;66665;51.656;16.106;2023-01-16T20:56:13;4;3;2
77538;PMS7003;66665;51.656;16.106;2023-01-16T20:59:15;2;1;1
77538;PMS7003;66665;51.656;16.106;2023-01-16T21:02:17;2;2;1
77538;PMS7003;66665;51.656;16.106;2023-01-16T21:05:29;1;1;0
77538;PMS7003;66665;51.656;16.106;2023-01-16T21:08:35;6;3;2
77538;PMS7003;66665;51.656;16.106;2023-01-16T21:11:41;4;2;1
77538;PMS7003;66665;51.656;16.106;2023-01-16T21:14:56;3;3;1
77538;PMS7003;66665;51.656;16.106;2023-01-16T21:17:57;3;2;2
77538;PMS7003;66665;51.656;16.106;2023-01-16T21:21:11;1;0;0
77538;PMS7003;66665;51.656;16.106;2023-01-16T21:24:25;1;1;1
77538;PMS7003;66665;51.656;16.106;2023-01-16T21:27:28;3;1;0
77538;PMS7003;66665;51.656;16.106;2023-01-16T21:30:32;3;2;2
77538;PMS7003;66665;51.656;16.106;2023-01-16T21:33:33;1;1;1
77538;PMS7003;66665;51.656;16.106;2023-01-16T21:36:36;2;2;1
77538;PMS7003;66665;51.656;16.106;2023-01-16T21:39:43;3;3;2
77538;PMS7003;66665;51.656;16.106;2023-01-16T21:42:45;2;2;1
77538;PMS7003;66665;51.656;16.106;2023-01-16T21:45:59;2;2;2
77538;PMS7003;66665;51.656;16.106;2023-01-16T21:49:13;3;2;2
77538;PMS7003;66665;51.656;16.106;2023-01-16T21:52:17;6;3;1
77538;PMS7003;66665;51.656;16.106;2023-01-16T21:55:19;8;4;2
77538;PMS7003;66665;51.656;16.106;2023-01-16T22:01:31;4;2;2
77538;PMS7003;66665;51.656;16.106;2023-01-16T22:04:36;4;4;3
77538;PMS7003;66665;51.656;16.106;2023-01-16T22:07:39;4;2;1
77538;PMS7003;66665;51.656;16.106;2023-01-16T22:10:44;10;4;2
77538;PMS7003;66665;51.656;16.106;2023-01-16T22:14:04;4;3;1
77538;PMS7003;66665;51.656;16.106;2023-01-16T22:17:18;12;4;3
77538;PMS7003;66665;51.656;16.106;2023-01-16T22:20:32;5;3;1
77538;PMS7003;66665;51.656;16.106;2023-01-16T22:23:41;4;4;2
77538;PMS7003;66665;51.656;16.106;2023-01-16T22:26:44;8;7;3
77538;PMS7003;66665;51.656;16.106;2023-01-16T22:29:47;4;4;3
77538;PMS7003;66665;51.656;16.106;2023-01-16T22:32:49;5;2;1
77538;PMS7003;66665;51.656;16.106;2023-01-16T22:39:06;13;5;3
77538;PMS7003;66665;51.656;16.106;2023-01-16T22:42:08;2;2;2
77538;PMS7003;66665;51.656;16.106;2023-01-16T22:45:10;7;2;1
77538;PMS7003;66665;51.656;16.106;2023-01-16T22:48:25;1;1;1
77538;PMS7003;66665;51.656;16.106;2023-01-16T22:51:27;6;4;3
77538;PMS7003;66665;51.656;16.106;2023-01-16T22:54:31;7;4;3
77538;PMS7003;66665;51.656;16.106;2023-01-16T22:57:33;4;4;2
77538;PMS7003;66665;51.656;16.106;2023-01-16T23:00:35;4;4;2
77538;PMS7003;66665;51.656;16.106;2023-01-16T23:03:45;4;2;1
77538;PMS7003;66665;51.656;16.106;2023-01-16T23:06:50;7;6;3
77538;PMS7003;66665;51.656;16.106;2023-01-16T23:09:51;5;5;4
77538;PMS7003;66665;51.656;16.106;2023-01-16T23:12:53;5;3;2
77538;PMS7003;66665;51.656;16.106;2023-01-16T23:15:55;12;8;6
77538;PMS7003;66665;51.656;16.106;2023-01-16T23:19:07;5;4;3
77538;PMS7003;66665;51.656;16.106;2023-01-16T23:22:11;8;7;3
77538;PMS7003;66665;51.656;16.106;2023-01-16T23:25:13;8;4;3
77538;PMS7003;66665;51.656;16.106;2023-01-16T23:28:16;11;6;4
77538;PMS7003;66665;51.656;16.106;2023-01-16T23:31:18;8;6;5
77538;PMS7003;66665;51.656;16.106;2023-01-16T23:34:27;7;4;2
77538;PMS7003;66665;51.656;16.106;2023-01-16T23:37:29;6;3;2
77538;PMS7003;66665;51.656;16.106;2023-01-16T23:40:31;7;4;3
77538;PMS7003;66665;51.656;16.106;2023-01-16T23:43:33;9;5;4
77538;PMS7003;66665;51.656;16.106;2023-01-16T23:46:48;8;8;5
77538;PMS7003;66665;51.656;16.106;2023-01-16T23:49:53;9;7;3